Time;durP1;ratioP1;P1;durP2;ratioP2;P2;SDS_P1;SDS_P2;PMS_P1;PMS_P2;Temp;Humidity;BMP_temperature;BMP_pressure;BME280_temperature;BME280_humidity;BME280_pressure;Samples;Min_cycle;Max_cycle;Signal;HPM_P1;HPM_P2
2021/07/06 00:01:30;;;;;;;6.38;3.05;;;;;;;19.24;93.60;98525.47;5084928;28;20201;-73
2021/07/06 00:03:57;;;;;;;4.40;2.73;;;;;;;19.23;93.99;98522.94;5074813;28;20251;-73
2021/07/06 00:06:23;;;;;;;3.22;2.92;;;;;;;19.30;93.99;98524.78;5074480;28;20529;-72
2021/07/06 00:08:50;;;;;;;4.17;2.70;;;;;;;19.06;95.40;98524.78;5074661;28;20742;-73
2021/07/06 00:11:17;;;;;;;3.10;2.63;;;;;;;18.97;97.37;98507.53;5082293;28;20426;-73
2021/07/06 00:13:45;;;;;;;4.00;3.28;;;;;;;18.87;98.93;98517.78;5094611;28;20517;-72
2021/07/06 00:16:13;;;;;;;3.53;2.67;;;;;;;18.83;99.51;98517.25;5077366;28;20200;-72
2021/07/06 00:18:40;;;;;;;6.82;2.90;;;;;;;18.71;100.00;98524.03;5074368;28;20204;-73
2021/07/06 00:21:06;;;;;;;3.75;3.15;;;;;;;18.73;100.00;98519.25;5080536;28;20187;-72
2021/07/06 00:23:33;;;;;;;4.50;2.80;;;;;;;18.67;100.00;98512.59;5101033;28;20289;-72
2021/07/06 00:26:00;;;;;;;3.75;2.83;;;;;;;18.72;100.00;98512.09;5107671;28;20274;-71
2021/07/06 00:28:26;;;;;;;3.75;2.63;;;;;;;18.66;100.00;98504.59;5095298;28;20204;-71
2021/07/06 00:30:54;;;;;;;5.07;2.70;;;;;;;18.63;100.00;98494.88;5092601;28;20199;-71
2021/07/06 00:33:21;;;;;;;3.50;3.20;;;;;;;18.74;100.00;98501.88;5094280;28;20418;-72
2021/07/06 00:35:48;;;;;;;5.43;3.28;;;;;;;18.98;98.25;98495.63;5089905;28;20188;-72
2021/07/06 00:38:14;;;;;;;5.45;3.17;;;;;;;18.80;99.26;98512.16;5084106;28;20585;-72
2021/07/06 00:40:42;;;;;;;4.90;3.43;;;;;;;18.64;100.00;98503.91;5074865;28;20287;-72
2021/07/06 00:43:08;;;;;;;5.32;3.00;;;;;;;18.82;99.26;98501.94;5074859;28;20441;-73
2021/07/06 00:45:35;;;;;;;3.35;2.85;;;;;;;18.73;99.59;98511.09;5079771;28;20275;-72
2021/07/06 00:48:03;;;;;;;4.68;2.95;;;;;;;18.73;99.65;98502.91;5073543;28;20231;-72
2021/07/06 00:50:30;;;;;;;5.68;3.15;;;;;;;18.66;99.32;98496.41;5074660;28;20279;-73
2021/07/06 00:52:57;;;;;;;3.20;2.58;;;;;;;18.74;99.80;98494.53;5094263;28;20225;-71
2021/07/06 00:55:24;;;;;;;2.78;2.28;;;;;;;18.65;99.32;98492.81;5092808;28;20280;-72
2021/07/06 00:57:50;;;;;;;3.00;2.50;;;;;;;18.64;99.62;98490.28;5073987;28;20212;-72
2021/07/06 01:00:19;;;;;;;4.30;2.80;;;;;;;18.49;100.00;98481.88;5078061;28;20606;-71
2021/07/06 01:02:47;;;;;;;7.32;2.85;;;;;;;18.42;100.00;98481.69;5073674;28;20641;-72
2021/07/06 01:05:18;;;;;;;4.10;2.60;;;;;;;18.62;100.00;98478.69;5073096;28;20227;-72
2021/07/06 01:07:45;;;;;;;6.20;3.50;;;;;;;18.65;99.14;98481.06;5072924;28;20192;-72
2021/07/06 01:10:12;;;;;;;4.28;3.65;;;;;;;18.37;100.00;98472.34;5079415;28;20215;-72
2021/07/06 01:12:38;;;;;;;6.65;3.08;;;;;;;18.24;100.00;98480.97;5073149;28;20362;-73
2021/07/06 01:15:08;;;;;;;3.10;2.80;;;;;;;18.44;100.00;98474.22;5073504;28;20629;-72
2021/07/06 01:17:36;;;;;;;4.20;3.15;;;;;;;18.50;100.00;98476.28;5074527;28;20202;-72
2021/07/06 01:20:07;;;;;;;5.55;2.80;;;;;;;18.62;98.30;98465.91;5083289;28;20645;-73
2021/07/06 01:22:35;;;;;;;3.83;2.92;;;;;;;18.63;97.69;98466.75;5100647;28;20200;-72
2021/07/06 01:25:05;;;;;;;4.30;2.70;;;;;;;18.78;96.97;98456.06;5113587;28;20309;-72
2021/07/06 01:27:32;;;;;;;9.77;3.72;;;;;;;18.76;96.15;98446.16;5078911;28;20193;-71
2021/07/06 01:29:58;;;;;;;8.55;3.08;;;;;;;18.61;96.29;98446.97;5098270;28;20216;-72
2021/07/06 01:32:25;;;;;;;4.43;3.03;;;;;;;18.73;94.38;98448.38;5089088;28;20188;-72
2021/07/06 01:34:52;;;;;;;2.90;2.70;;;;;;;18.71;95.52;98464.88;5093330;28;20298;-72
2021/07/06 01:37:19;;;;;;;3.55;3.15;;;;;;;18.58;97.06;98469.13;5075053;28;20191;-71
2021/07/06 01:39:49;;;;;;;5.05;3.05;;;;;;;18.46;97.96;98461.28;5080936;28;20184;-73
2021/07/06 01:42:17;;;;;;;5.00;2.60;;;;;;;18.40;98.97;98459.22;5087700;28;20302;-72
2021/07/06 01:44:44;;;;;;;3.65;2.97;;;;;;;18.20;100.00;98460.53;5092694;28;20202;-72
2021/07/06 01:47:10;;;;;;;5.38;2.80;;;;;;;18.10;100.00;98460.66;5081113;28;20192;-73
2021/07/06 01:49:37;;;;;;;4.38;3.28;;;;;;;18.14;100.00;98462.03;5079673;28;20307;-73
2021/07/06 01:52:04;;;;;;;6.65;2.75;;;;;;;18.14;100.00;98459.31;5091244;28;20227;-73
2021/07/06 01:54:31;;;;;;;3.42;2.95;;;;;;;18.17;100.00;98450.81;5072713;28;20633;-72
2021/07/06 01:56:59;;;;;;;4.85;3.30;;;;;;;18.11;100.00;98455.06;5085979;28;20195;-72
2021/07/06 01:59:26;;;;;;;3.80;3.00;;;;;;;18.10;100.00;98453.34;5089359;28;20193;-72
2021/07/06 02:01:52;;;;;;;4.65;3.00;;;;;;;18.03;100.00;98438.69;5085647;28;20196;-72
2021/07/06 02:04:19;;;;;;;5.22;3.20;;;;;;;18.04;100.00;98428.63;5072232;28;20318;-72
2021/07/06 02:06:46;;;;;;;4.57;3.33;;;;;;;17.97;100.00;98431.16;5072030;28;20283;-71
2021/07/06 02:09:12;;;;;;;6.93;3.20;;;;;;;18.09;100.00;98427.13;5072049;28;20217;-71
2021/07/06 02:11:39;;;;;;;4.95;3.45;;;;;;;18.03;100.00;98422.34;5072159;28;20192;-71
2021/07/06 02:14:07;;;;;;;4.53;3.25;;;;;;;17.91;100.00;98431.84;5072391;28;20206;-72
2021/07/06 02:16:36;;;;;;;4.38;2.88;;;;;;;17.86;100.00;98432.34;5089122;28;20193;-72
2021/07/06 02:19:03;;;;;;;7.22;3.05;;;;;;;17.89;100.00;98437.44;5092385;28;20186;-72
2021/07/06 02:21:30;;;;;;;3.63;3.33;;;;;;;17.78;100.00;98428.69;5092574;28;20202;-72
2021/07/06 02:23:56;;;;;;;8.48;3.55;;;;;;;17.74;100.00;98416.41;5073526;28;20191;-72
2021/07/06 02:26:23;;;;;;;4.25;3.40;;;;;;;17.72;100.00;98420.13;5088760;28;20210;-72
2021/07/06 02:28:50;;;;;;;5.47;3.10;;;;;;;17.76;100.00;98414.38;5083838;28;20222;-72
2021/07/06 02:31:18;;;;;;;6.57;3.65;;;;;;;17.71;100.00;98415.72;5081982;28;20281;-72
2021/07/06 02:33:44;;;;;;;5.60;3.00;;;;;;;17.71;100.00;98418.44;5104835;28;20188;-72
2021/07/06 02:36:11;;;;;;;3.15;2.95;;;;;;;17.82;100.00;98422.78;5095077;28;20194;-73
2021/07/06 02:38:39;;;;;;;4.30;3.53;;;;;;;17.72;100.00;98424.75;5072030;28;20198;-72
2021/07/06 02:41:06;;;;;;;4.78;3.22;;;;;;;17.68;100.00;98410.63;5072097;28;20285;-73
2021/07/06 02:43:33;;;;;;;5.20;3.05;;;;;;;17.56;100.00;98402.91;5072698;28;20681;-73
2021/07/06 02:45:59;;;;;;;4.20;3.38;;;;;;;17.58;100.00;98407.16;5101555;28;20282;-73
2021/07/06 02:48:27;;;;;;;5.50;3.33;;;;;;;17.53;100.00;98406.78;5100765;28;20273;-73
2021/07/06 02:50:54;;;;;;;3.22;2.92;;;;;;;17.49;100.00;98408.13;5091482;28;20192;-72
2021/07/06 02:53:20;;;;;;;9.48;3.45;;;;;;;17.43;100.00;98403.31;5092332;28;20189;-72
2021/07/06 02:55:47;;;;;;;3.13;2.85;;;;;;;17.30;100.00;98399.19;5078216;28;20225;-72
2021/07/06 02:58:14;;;;;;;3.95;3.35;;;;;;;17.40;100.00;98409.09;5082782;28;20204;-72
2021/07/06 03:00:40;;;;;;;4.60;2.97;;;;;;;17.40;100.00;98400.94;5092238;28;20615;-72
2021/07/06 03:03:09;;;;;;;3.33;3.03;;;;;;;17.48;100.00;98409.16;5091414;28;20189;-72
2021/07/06 03:05:38;;;;;;;4.60;3.35;;;;;;;17.52;100.00;98407.78;5091479;28;20245;-72
2021/07/06 03:08:06;;;;;;;5.38;3.28;;;;;;;17.50;100.00;98409.81;5092134;28;20224;-73
2021/07/06 03:10:34;;;;;;;5.13;3.20;;;;;;;17.66;100.00;98403.59;5086418;28;20216;-72
2021/07/06 03:13:01;;;;;;;5.28;3.15;;;;;;;17.64;100.00;98405.66;5090499;28;20288;-72
2021/07/06 03:15:31;;;;;;;5.55;3.47;;;;;;;17.62;100.00;98404.97;5091761;28;20182;-72
2021/07/06 03:17:59;;;;;;;5.50;3.20;;;;;;;17.63;100.00;98385.72;5074274;28;20595;-73
2021/07/06 03:20:27;;;;;;;4.90;3.17;;;;;;;17.63;100.00;98383.00;5071829;28;20285;-71
2021/07/06 03:22:56;;;;;;;3.95;3.22;;;;;;;17.68;100.00;98379.78;5072984;28;20213;-71
2021/07/06 03:25:25;;;;;;;4.95;2.70;;;;;;;17.66;100.00;98366.38;5076616;28;20799;-71
2021/07/06 03:27:51;;;;;;;2.72;2.53;;;;;;;17.66;100.00;98366.38;5091895;28;20281;-72
2021/07/06 03:30:20;;;;;;;3.67;2.72;;;;;;;17.65;100.00;98375.53;5086743;28;20213;-73
2021/07/06 03:32:48;;;;;;;5.85;3.08;;;;;;;17.89;100.00;98382.13;5071175;28;20183;-72
2021/07/06 03:35:15;;;;;;;5.05;2.97;;;;;;;17.92;100.00;98382.66;5083914;28;20258;-72
2021/07/06 03:37:42;;;;;;;9.20;3.40;;;;;;;18.00;100.00;98383.69;5090836;28;20283;-72
2021/07/06 03:40:12;;;;;;;4.38;3.00;;;;;;;17.99;100.00;98387.44;5087215;28;20271;-72
2021/07/06 03:42:39;;;;;;;8.50;3.22;;;;;;;18.12;100.00;98385.94;5091636;28;20673;-72
2021/07/06 03:45:07;;;;;;;4.55;3.40;;;;;;;18.10;100.00;98382.53;5091684;28;20629;-72
2021/07/06 03:47:34;;;;;;;3.65;2.78;;;;;;;18.08;100.00;98384.56;5089640;28;20278;-72
2021/07/06 03:50:01;;;;;;;6.30;3.42;;;;;;;18.13;99.29;98384.94;5091512;28;20310;-72
2021/07/06 03:52:28;;;;;;;3.17;2.88;;;;;;;18.08;99.02;98381.84;5088572;28;20191;-73
2021/07/06 03:54:54;;;;;;;3.95;2.55;;;;;;;18.27;98.68;98388.00;5073251;28;20291;-72
2021/07/06 03:57:29;;;;;;;3.97;3.00;;;;;;;18.11;98.21;98392.41;5074911;28;20231;-70
2021/07/06 03:59:56;;;;;;;4.95;3.08;;;;;;;18.36;98.23;98399.75;5091210;28;20281;-72
2021/07/06 04:02:23;;;;;;;6.90;3.53;;;;;;;18.59;95.88;98400.81;5094397;28;20200;-71
2021/07/06 04:04:50;;;;;;;7.63;3.33;;;;;;;18.81;94.08;98393.84;5094581;28;20247;-72
2021/07/06 04:07:16;;;;;;;7.25;3.20;;;;;;;18.46;95.35;98395.88;5095162;28;20203;-72
2021/07/06 04:09:43;;;;;;;5.20;2.65;;;;;;;18.51;95.78;98388.03;5108674;28;20221;-72
2021/07/06 04:12:10;;;;;;;5.70;2.50;;;;;;;18.64;95.57;98397.59;5097960;27;20188;-72
2021/07/06 04:14:38;;;;;;;4.63;2.60;;;;;;;18.63;95.11;98401.31;5079295;28;20642;-72
2021/07/06 04:17:05;;;;;;;5.40;3.95;;;;;;;18.89;93.84;98401.19;5074766;28;20625;-73
2021/07/06 04:19:32;;;;;;;4.78;3.13;;;;;;;18.81;92.49;98401.19;5074271;28;20283;-73
2021/07/06 04:21:59;;;;;;;5.75;3.25;;;;;;;18.61;94.67;98403.38;5094157;28;20282;-72
2021/07/06 04:24:27;;;;;;;7.15;3.00;;;;;;;18.55;95.42;98389.41;5076699;28;20192;-73
2021/07/06 04:26:53;;;;;;;6.95;3.20;;;;;;;18.60;95.79;98416.16;5103087;28;20195;-72
2021/07/06 04:29:20;;;;;;;3.95;3.45;;;;;;;18.97;93.34;98417.53;5081619;28;20204;-72
2021/07/06 04:31:48;;;;;;;3.78;2.90;;;;;;;19.19;90.84;98426.91;5087142;28;20206;-72
2021/07/06 04:34:14;;;;;;;3.45;3.13;;;;;;;19.13;91.15;98442.09;5092701;28;20647;-71
2021/07/06 04:36:41;;;;;;;4.05;2.85;;;;;;;19.00;91.25;98479.09;5094028;28;20278;-72
2021/07/06 04:39:07;;;;;;;5.07;3.95;;;;;;;18.69;94.33;98496.06;5091207;28;20187;-74
2021/07/06 04:41:34;;;;;;;5.68;3.67;;;;;;;18.78;93.23;98502.44;5092134;28;20200;-72
2021/07/06 04:44:01;;;;;;;6.07;3.05;;;;;;;18.74;94.49;98516.34;5078488;28;20219;-73
2021/07/06 04:46:27;;;;;;;4.07;2.75;;;;;;;18.85;93.72;98493.41;5073842;28;20198;-72
2021/07/06 04:48:55;;;;;;;4.38;3.22;;;;;;;18.87;93.96;98504.16;5074713;28;20191;-73
2021/07/06 04:51:22;;;;;;;4.80;3.33;;;;;;;19.06;92.90;98484.72;5073905;28;20577;-73
2021/07/06 04:53:49;;;;;;;4.22;3.45;;;;;;;19.08;94.00;98471.75;5085646;28;20610;-72
2021/07/06 04:56:15;;;;;;;7.13;4.93;;;;;;;19.29;94.54;98473.13;5094804;28;20192;-72
2021/07/06 04:58:42;;;;;;;11.87;4.70;;;;;;;19.49;96.19;98489.97;5074442;28;20288;-72
2021/07/06 05:01:10;;;;;;;6.55;3.83;;;;;;;19.41;96.64;98504.50;5074759;28;20429;-72
2021/07/06 05:03:38;;;;;;;7.80;5.90;;;;;;;19.61;95.00;98531.44;5082639;28;20641;-73
2021/07/06 05:06:06;;;;;;;6.85;4.20;;;;;;;19.71;95.89;98557.53;5092733;28;20430;-73
2021/07/06 05:08:34;;;;;;;6.90;4.50;;;;;;;19.76;96.05;98576.13;5090157;28;20196;-73
2021/07/06 05:11:01;;;;;;;8.90;4.53;;;;;;;19.68;96.95;98587.91;5091850;28;20952;-72
2021/07/06 05:13:28;;;;;;;11.20;3.50;;;;;;;19.68;98.88;98570.66;5079309;28;20204;-72
2021/07/06 05:15:54;;;;;;;14.30;5.28;;;;;;;19.22;100.00;98497.53;5073457;28;20442;-73
2021/07/06 05:18:21;;;;;;;8.40;5.68;;;;;;;17.86;100.00;98426.88;5078123;28;20274;-73
2021/07/06 05:20:47;;;;;;;7.43;5.80;;;;;;;17.75;100.00;98418.97;5092897;28;20267;-72
2021/07/06 05:23:15;;;;;;;13.00;6.57;;;;;;;17.75;100.00;98423.56;5081582;28;20207;-73
2021/07/06 05:25:42;;;;;;;9.48;7.25;;;;;;;17.68;100.00;98423.34;5082799;28;20274;-73
2021/07/06 05:28:08;;;;;;;10.10;7.63;;;;;;;17.90;100.00;98449.19;5093166;28;20617;-73
2021/07/06 05:30:35;;;;;;;7.95;6.25;;;;;;;17.85;100.00;98440.66;5093104;28;20214;-72
2021/07/06 05:33:02;;;;;;;11.70;7.53;;;;;;;17.95;100.00;98437.78;5092982;28;20590;-73
2021/07/06 05:35:29;;;;;;;10.77;6.50;;;;;;;18.04;100.00;98431.34;5089824;28;20674;-73
2021/07/06 05:37:55;;;;;;;8.02;5.40;;;;;;;17.90;100.00;98462.78;5092640;28;20663;-73
2021/07/06 05:40:23;;;;;;;7.68;6.30;;;;;;;17.80;100.00;98479.22;5092453;28;20278;-73
2021/07/06 05:42:50;;;;;;;7.25;6.30;;;;;;;17.94;100.00;98480.50;5092015;28;20239;-74
2021/07/06 05:45:16;;;;;;;9.85;6.78;;;;;;;18.29;100.00;98481.31;5092387;28;20188;-75
2021/07/06 05:47:43;;;;;;;13.05;7.05;;;;;;;18.55;100.00;98486.69;5091664;28;20616;-72
2021/07/06 05:50:11;;;;;;;10.93;7.13;;;;;;;18.59;100.00;98506.25;5094224;28;20211;-72
2021/07/06 05:52:38;;;;;;;9.23;7.15;;;;;;;18.65;100.00;98508.31;5096561;28;21063;-74
2021/07/06 05:55:07;;;;;;;11.60;8.23;;;;;;;18.63;100.00;98521.28;5110256;28;20210;-74
2021/07/06 05:57:36;;;;;;;11.07;7.88;;;;;;;18.70;100.00;98519.56;5095936;28;20676;-73
2021/07/06 06:00:08;;;;;;;11.88;7.22;;;;;;;18.59;100.00;98526.22;5092139;28;20207;-73
2021/07/06 06:02:35;;;;;;;12.48;7.95;;;;;;;18.70;100.00;98527.75;5092097;28;20534;-73
2021/07/06 06:05:02;;;;;;;12.50;7.22;;;;;;;18.79;100.00;98537.72;5090546;28;20234;-74
2021/07/06 06:07:28;;;;;;;11.77;7.35;;;;;;;18.67;100.00;98545.31;5103959;28;20194;-75
2021/07/06 06:09:55;;;;;;;12.57;7.43;;;;;;;18.54;100.00;98555.81;5092145;28;20611;-74
2021/07/06 06:12:22;;;;;;;16.08;9.93;;;;;;;18.54;100.00;98539.47;5091196;28;20541;-74
2021/07/06 06:14:49;;;;;;;12.75;8.75;;;;;;;18.51;100.00;98529.75;5089000;28;20605;-73
2021/07/06 06:17:16;;;;;;;10.95;8.13;;;;;;;18.49;100.00;98531.78;5072316;28;20187;-73
2021/07/06 06:19:43;;;;;;;12.25;8.25;;;;;;;18.79;100.00;98532.25;5071537;28;20279;-73
2021/07/06 06:22:09;;;;;;;11.43;8.05;;;;;;;18.83;100.00;98540.94;5071500;28;20212;-73
2021/07/06 06:24:36;;;;;;;13.27;7.53;;;;;;;18.92;100.00;98553.56;5078284;28;20244;-74
2021/07/06 06:27:03;;;;;;;9.70;8.13;;;;;;;18.99;100.00;98548.31;5089751;28;20187;-74
2021/07/06 06:29:30;;;;;;;15.38;10.32;;;;;;;18.93;100.00;98538.94;5091933;28;20643;-74
2021/07/06 06:31:58;;;;;;;13.52;8.05;;;;;;;18.99;100.00;98534.66;5092240;28;20191;-75
2021/07/06 06:34:24;;;;;;;10.55;8.00;;;;;;;18.96;100.00;98549.50;5083574;28;20201;-74
2021/07/06 06:36:51;;;;;;;8.43;6.70;;;;;;;19.22;100.00;98582.09;5092256;28;20188;-74
2021/07/06 06:39:18;;;;;;;10.10;7.70;;;;;;;19.29;100.00;98615.88;5091951;28;20208;-73
2021/07/06 06:41:44;;;;;;;7.32;5.95;;;;;;;19.07;100.00;98665.63;5092002;28;20546;-72
2021/07/06 06:44:11;;;;;;;10.75;7.95;;;;;;;19.01;100.00;98688.09;5091572;28;20205;-73
2021/07/06 06:46:37;;;;;;;10.30;7.15;;;;;;;18.93;100.00;98680.75;5091601;28;20247;-73
2021/07/06 06:49:05;;;;;;;15.45;6.65;;;;;;;18.74;100.00;98676.38;5090998;28;20207;-73
2021/07/06 06:51:33;;;;;;;13.32;6.45;;;;;;;18.33;100.00;98666.09;5091254;28;20260;-72
2021/07/06 06:54:01;;;;;;;10.68;7.70;;;;;;;18.23;100.00;98667.25;5091489;28;20623;-74
2021/07/06 06:56:27;;;;;;;10.27;6.55;;;;;;;18.18;100.00;98665.03;5090562;28;20715;-73
2021/07/06 06:58:54;;;;;;;10.30;6.18;;;;;;;18.12;100.00;98646.59;5091367;28;20203;-73
2021/07/06 07:01:21;;;;;;;10.68;8.57;;;;;;;18.21;100.00;98636.59;5091477;28;20183;-73
2021/07/06 07:03:47;;;;;;;9.30;7.85;;;;;;;18.42;100.00;98628.84;5091829;28;20615;-73
2021/07/06 07:06:15;;;;;;;12.63;7.90;;;;;;;18.63;100.00;98606.66;5091809;28;20222;-74
2021/07/06 07:08:42;;;;;;;11.93;8.15;;;;;;;18.59;100.00;98582.59;5091654;28;20290;-74
2021/07/06 07:11:08;;;;;;;10.00;6.93;;;;;;;18.56;100.00;98581.03;5091642;28;20683;-73
2021/07/06 07:13:35;;;;;;;13.25;7.60;;;;;;;18.52;100.00;98580.53;5091951;28;20207;-73
2021/07/06 07:16:03;;;;;;;8.65;6.55;;;;;;;18.70;100.00;98572.25;5091617;28;20186;-73
2021/07/06 07:18:29;;;;;;;9.85;6.15;;;;;;;18.72;100.00;98553.88;5091876;28;20289;-73
2021/07/06 07:20:56;;;;;;;10.40;7.32;;;;;;;18.81;100.00;98538.38;5091837;28;20217;-74
2021/07/06 07:23:24;;;;;;;9.68;7.30;;;;;;;18.75;100.00;98541.75;5091181;28;20624;-75
2021/07/06 07:25:51;;;;;;;7.43;6.53;;;;;;;18.80;100.00;98549.47;5091896;28;20184;-72
2021/07/06 07:28:17;;;;;;;8.65;6.25;;;;;;;18.98;100.00;98557.53;5091325;28;20209;-74
2021/07/06 07:30:44;;;;;;;9.45;6.05;;;;;;;19.12;100.00;98570.47;5094997;28;20207;-73
2021/07/06 07:33:11;;;;;;;6.88;5.38;;;;;;;19.27;100.00;98589.78;5095755;28;20264;-74
2021/07/06 07:35:37;;;;;;;9.35;5.85;;;;;;;19.36;100.00;98605.97;5095265;28;20322;-75
2021/07/06 07:38:04;;;;;;;11.48;5.95;;;;;;;19.43;100.00;98622.53;5095641;28;20319;-73
2021/07/06 07:40:32;;;;;;;9.00;6.18;;;;;;;19.42;100.00;98633.63;5095351;28;20246;-73
2021/07/06 07:43:05;;;;;;;12.40;7.10;;;;;;;19.40;100.00;98635.66;5095118;28;20275;-74
2021/07/06 07:45:32;;;;;;;8.70;6.95;;;;;;;19.34;100.00;98632.59;5095200;28;20180;-73
2021/07/06 07:47:58;;;;;;;9.30;6.43;;;;;;;19.41;100.00;98653.75;5094931;28;20194;-74
2021/07/06 07:50:25;;;;;;;16.93;14.30;;;;;;;19.49;100.00;98681.03;5095031;28;20507;-74
2021/07/06 07:52:52;;;;;;;17.60;14.53;;;;;;;19.53;100.00;98690.63;5095330;28;20422;-74
2021/07/06 07:55:18;;;;;;;9.77;7.00;;;;;;;19.55;100.00;98699.50;5094405;28;20529;-73
2021/07/06 07:57:46;;;;;;;10.33;6.00;;;;;;;19.61;100.00;98703.44;5095133;28;20418;-73
2021/07/06 08:00:15;;;;;;;8.67;6.80;;;;;;;19.61;100.00;98701.56;5094987;28;20441;-73
2021/07/06 08:02:42;;;;;;;9.57;6.17;;;;;;;19.54;100.00;98703.25;5094856;28;20446;-74
2021/07/06 08:05:09;;;;;;;8.77;5.53;;;;;;;19.49;100.00;98703.78;5094687;28;20560;-73
2021/07/06 08:07:36;;;;;;;10.90;5.77;;;;;;;19.51;100.00;98709.03;5094457;28;20517;-75
2021/07/06 08:10:03;;;;;;;6.60;5.57;;;;;;;19.57;100.00;98711.09;5094814;28;20504;-74
2021/07/06 08:12:30;;;;;;;8.63;4.50;;;;;;;19.58;100.00;98700.03;5094499;28;20525;-75
2021/07/06 08:14:58;;;;;;;5.63;4.83;;;;;;;19.55;100.00;98673.03;5094937;28;20513;-73
2021/07/06 08:17:25;;;;;;;5.97;4.97;;;;;;;19.70;100.00;98673.25;5094312;28;20437;-73
2021/07/06 08:19:52;;;;;;;10.87;5.00;;;;;;;19.83;100.00;98691.00;5094427;28;20860;-73
2021/07/06 08:22:19;;;;;;;7.03;4.80;;;;;;;19.81;100.00;98703.97;5094766;28;20438;-73
2021/07/06 08:24:45;;;;;;;7.00;4.40;;;;;;;19.73;100.00;98713.88;5094303;28;20421;-74
2021/07/06 08:27:12;;;;;;;6.23;5.40;;;;;;;19.62;100.00;98705.13;5094344;28;20529;-74
2021/07/06 08:29:39;;;;;;;3.93;2.93;;;;;;;19.68;100.00;98680.75;5093088;28;20434;-75
2021/07/06 08:32:08;;;;;;;4.13;3.63;;;;;;;19.77;100.00;98657.06;5094192;28;20871;-72
2021/07/06 08:34:34;;;;;;;5.10;4.60;;;;;;;19.63;100.00;98679.53;5094075;28;20426;-73
2021/07/06 08:37:01;;;;;;;7.03;5.40;;;;;;;19.86;100.00;98666.09;5093754;28;20430;-73
2021/07/06 08:39:28;;;;;;;6.17;5.03;;;;;;;19.85;100.00;98658.91;5094027;28;20983;-74
2021/07/06 08:41:55;;;;;;;5.83;4.83;;;;;;;20.06;100.00;98677.50;5093750;28;20430;-74
2021/07/06 08:44:21;;;;;;;8.20;4.20;;;;;;;20.31;100.00;98676.47;5094134;28;20758;-73
2021/07/06 08:46:50;;;;;;;8.30;4.07;;;;;;;20.33;100.00;98658.00;5093581;28;20472;-73
2021/07/06 08:49:20;;;;;;;5.53;4.53;;;;;;;20.39;100.00;98664.66;5094366;28;20517;-74
2021/07/06 08:51:50;;;;;;;4.73;4.13;;;;;;;20.67;100.00;98664.25;5093316;28;20466;-73
2021/07/06 08:54:17;;;;;;;4.30;3.60;;;;;;;20.72;100.00;98690.06;5085838;28;20442;-74
2021/07/06 08:56:44;;;;;;;3.87;3.57;;;;;;;20.70;100.00;98692.09;5093206;28;20414;-74
2021/07/06 08:59:11;;;;;;;4.87;3.60;;;;;;;20.79;100.00;98693.78;5093311;28;20464;-74
2021/07/06 09:01:37;;;;;;;6.57;3.50;;;;;;;20.71;99.52;98701.16;5093236;28;20849;-74
2021/07/06 09:04:06;;;;;;;4.40;3.10;;;;;;;20.74;100.00;98711.78;5093160;28;20484;-76
2021/07/06 09:06:54;;;;;;;2.70;2.07;;;;;;;20.56;99.88;98701.03;5093624;28;20514;-74
2021/07/06 09:09:22;;;;;;;4.23;2.47;;;;;;;20.65;100.00;98707.34;5093662;28;20445;-73
2021/07/06 09:11:50;;;;;;;8.03;5.73;;;;;;;20.92;100.00;98722.47;5093269;28;20468;-73
2021/07/06 09:14:18;;;;;;;7.90;6.20;;;;;;;21.15;95.81;98717.06;5093527;28;20545;-73
2021/07/06 09:16:45;;;;;;;2.37;2.17;;;;;;;21.25;94.02;98728.66;5093224;28;20434;-75
2021/07/06 09:19:20;;;;;;;3.03;2.40;;;;;;;21.54;93.23;98733.47;5093280;28;20476;-74
2021/07/06 09:22:09;;;;;;;3.00;2.27;;;;;;;21.58;90.87;98736.72;5092846;28;20468;-73
2021/07/06 09:24:37;;;;;;;2.57;2.03;;;;;;;21.79;90.27;98736.06;5093229;28;20426;-74
2021/07/06 09:27:20;;;;;;;3.20;2.90;;;;;;;22.41;85.92;98737.78;5092478;28;20434;-73
2021/07/06 09:30:02;;;;;;;6.23;2.83;;;;;;;22.65;79.87;98732.06;5093083;28;20452;-73
2021/07/06 09:32:28;;;;;;;4.73;3.47;;;;;;;22.80;79.49;98739.47;5092663;28;20806;-74
2021/07/06 09:34:55;;;;;;;7.90;6.10;;;;;;;22.71;80.91;98730.47;5085053;28;20788;-73
2021/07/06 09:37:23;;;;;;;7.27;4.50;;;;;;;22.42;82.11;98726.66;5072687;28;20514;-73
2021/07/06 09:39:49;;;;;;;2.10;1.90;;;;;;;22.12;82.86;98722.97;5072388;28;20478;-72
2021/07/06 09:42:17;;;;;;;2.43;2.00;;;;;;;21.99;82.98;98714.50;5080354;28;20440;-74
2021/07/06 09:44:44;;;;;;;3.50;2.20;;;;;;;21.92;85.38;98735.47;5092112;28;20521;-74
2021/07/06 09:47:12;;;;;;;2.27;2.07;;;;;;;21.61;83.75;98750.03;5092977;28;20426;-73
2021/07/06 09:49:40;;;;;;;3.73;2.63;;;;;;;21.72;85.48;98746.03;5092585;28;20506;-74
2021/07/06 09:52:13;;;;;;;8.80;2.50;;;;;;;21.83;84.61;98740.16;5092224;28;21394;-74
2021/07/06 09:54:44;;;;;;;3.17;2.53;;;;;;;21.79;85.32;98736.91;5082080;28;20434;-73
2021/07/06 09:57:22;;;;;;;3.30;2.40;;;;;;;21.94;82.14;98720.53;5081293;28;20461;-74
2021/07/06 10:00:02;;;;;;;3.17;2.33;;;;;;;22.04;78.91;98717.53;5089770;28;20466;-73
2021/07/06 10:02:30;;;;;;;7.27;3.80;;;;;;;22.33;79.60;98722.28;5091468;28;20973;-73
2021/07/06 10:04:58;;;;;;;6.50;4.50;;;;;;;22.57;78.38;98723.94;5092206;28;20473;-74
2021/07/06 10:07:26;;;;;;;2.80;2.50;;;;;;;22.56;76.30;98735.09;5092459;28;20438;-74
2021/07/06 10:09:55;;;;;;;4.10;2.40;;;;;;;23.08;77.06;98750.66;5092715;28;20450;-74
2021/07/06 10:12:23;;;;;;;3.47;2.37;;;;;;;23.40;73.57;98767.75;5090946;28;20464;-75
2021/07/06 10:14:51;;;;;;;3.50;2.13;;;;;;;22.46;77.24;98784.72;5091883;28;20449;-75
2021/07/06 10:17:18;;;;;;;2.33;2.00;;;;;;;22.21;76.46;98778.56;5092331;28;20438;-74
2021/07/06 10:19:46;;;;;;;4.30;2.00;;;;;;;22.17;75.80;98780.81;5092384;28;20856;-75
2021/07/06 10:22:15;;;;;;;2.53;2.00;;;;;;;22.32;75.54;98785.53;5092063;28;20468;-73
2021/07/06 10:24:43;;;;;;;1.90;1.70;;;;;;;22.34;72.18;98795.31;5091808;28;20474;-73
2021/07/06 10:27:16;;;;;;;1.70;1.50;;;;;;;22.06;74.29;98786.72;5092057;28;20514;-75
2021/07/06 10:29:43;;;;;;;3.30;1.40;;;;;;;22.19;73.54;98775.16;5092302;28;20449;-72
2021/07/06 10:32:30;;;;;;;1.60;1.50;;;;;;;22.08;74.55;98801.13;5091802;28;20556;-73
2021/07/06 10:34:56;;;;;;;2.10;1.57;;;;;;;22.18;73.91;98778.94;5091189;28;20962;-73
2021/07/06 10:37:29;;;;;;;4.90;1.83;;;;;;;21.93;72.68;98792.81;5091605;28;20525;-74
2021/07/06 10:40:12;;;;;;;1.80;1.70;;;;;;;22.31;72.52;98806.63;5091830;28;20493;-73
2021/07/06 10:42:41;;;;;;;2.53;1.50;;;;;;;22.52;70.34;98783.97;5092043;28;20830;-73
2021/07/06 10:45:16;;;;;;;1.37;1.23;;;;;;;22.11;70.53;98761.50;5091885;28;20991;-73
2021/07/06 10:47:46;;;;;;;1.73;1.37;;;;;;;22.10;71.08;98725.03;5089449;28;20423;-74
2021/07/06 10:50:43;;;;;;;1.73;1.27;;;;;;;21.15;75.68;98760.88;5072736;28;20477;-73
2021/07/06 10:53:21;;;;;;;1.97;1.70;;;;;;;21.42;77.15;98765.91;5078798;28;20549;-73
2021/07/06 10:55:59;;;;;;;3.30;2.60;;;;;;;21.90;75.09;98778.63;5090411;28;20430;-73
2021/07/06 10:58:56;;;;;;;1.40;1.10;;;;;;;22.10;74.40;98777.13;5088504;28;20430;-73
2021/07/06 11:01:58;;;;;;;1.13;1.03;;;;;;;22.46;70.43;98774.59;5085057;28;20891;-73
2021/07/06 11:04:55;;;;;;;2.50;1.30;;;;;;;22.60;70.15;98778.41;5089835;28;20477;-73
2021/07/06 11:08:00;;;;;;;1.73;1.23;;;;;;;23.06;65.12;98786.53;5095128;28;20503;-75
2021/07/06 11:10:46;;;;;;;3.87;1.57;;;;;;;23.21;63.13;98786.53;5096149;28;20426;-73
2021/07/06 11:13:20;;;;;;;2.83;1.27;;;;;;;23.06;63.34;98781.03;5085494;28;20502;-74
2021/07/06 11:15:48;;;;;;;4.90;1.50;;;;;;;23.35;64.89;98783.97;5079256;28;20433;-72
2021/07/06 11:18:15;;;;;;;5.07;1.80;;;;;;;23.68;62.62;98785.25;5076534;28;20632;-72
2021/07/06 11:20:43;;;;;;;1.87;1.03;;;;;;;23.55;61.34;98793.31;5075191;28;20443;-73
2021/07/06 11:23:15;;;;;;;2.77;1.63;;;;;;;23.57;62.34;98815.13;5075254;28;20753;-74
2021/07/06 11:25:44;;;;;;;2.60;1.10;;;;;;;23.48;62.15;98817.97;5090711;28;20426;-74
2021/07/06 11:28:13;;;;;;;1.73;1.37;;;;;;;22.96;63.67;98810.66;5095375;28;20446;-74
2021/07/06 11:30:43;;;;;;;2.83;2.30;;;;;;;22.77;63.76;98811.16;5093703;28;20444;-73
2021/07/06 11:33:12;;;;;;;2.03;0.90;;;;;;;22.02;65.27;98810.91;5095068;28;20488;-75